Terminal Aerodrome Forecast
Issued by NWS

Home | Current Version | Previous Version | Text Only | Print | Product List | Glossary On
Versions: 1 2 3 4 5 6 7 8 9 10 11 12 13 14 15 16 17 18 19
000
FTUS44 KLZK 220727 AAA
TAFLIT
TAF AMD
KLIT 220727Z 2207/2306 18010G20KT P6SM VCSH BKN020 OVC100
      WS020/20035KT
     FM220900 22009G16KT 5SM TSRA BR BKN020 OVC040CB WS020/20035KT
      TEMPO 2209/2211 VRB20G35KT 1SM +TSRA BKN015CB OVC040
     FM221300 31008G15KT P6SM -SHRA OVC020
     FM221900 34010KT P6SM VCSH SCT030 BKN060=

USA.gov is the U.S. government's official web portal to all federal, state and local government web resources and services.